Time;durP1;ratioP1;P1;durP2;ratioP2;P2;SDS_P1;SDS_P2;PMS_P1;PMS_P2;Temp;Humidity;BMP_temperature;BMP_pressure;BME280_temperature;BME280_humidity;BME280_pressure;Samples;Min_cycle;Max_cycle;Signal;HPM_P1;HPM_P2
2023/04/10 00:01:38;;;;;;;;;13.75;12.75;;;;;15.47;40.95;101458.06;5061984;28;45674;-67
2023/04/10 00:04:04;;;;;;;;;13.50;13.25;;;;;15.44;40.98;101446.66;5061847;28;45263;-67
2023/04/10 00:06:30;;;;;;;;;15.50;12.75;;;;;15.42;40.69;101444.94;5061738;28;46343;-67
2023/04/10 00:08:56;;;;;;;;;17.00;16.25;;;;;15.40;40.73;101438.81;5061771;28;45233;-67
2023/04/10 00:11:22;;;;;;;;;10.00;8.75;;;;;15.38;40.96;101435.31;5061499;28;45228;-67
2023/04/10 00:13:47;;;;;;;;;12.00;11.25;;;;;15.36;40.94;101431.84;5076300;28;45418;-68
2023/04/10 00:16:12;;;;;;;;;13.75;11.50;;;;;15.35;41.08;101432.75;5061071;28;45228;-67
2023/04/10 00:18:38;;;;;;;;;15.25;15.25;;;;;15.34;41.15;101437.16;5061363;28;45338;-67
2023/04/10 00:21:03;;;;;;;;;18.75;15.25;;;;;15.31;41.07;101431.94;5061855;28;45401;-67
2023/04/10 00:23:31;;;;;;;;;17.00;15.75;;;;;15.29;40.73;101431.09;5061629;28;45212;-67
2023/04/10 00:25:57;;;;;;;;;12.75;11.25;;;;;15.25;41.02;101425.00;5061320;28;45891;-67
2023/04/10 00:28:22;;;;;;;;;16.50;15.00;;;;;15.23;40.60;101426.84;5061654;28;45278;-67
2023/04/10 00:30:47;;;;;;;;;14.50;13.25;;;;;15.23;40.64;101426.84;5061132;28;45402;-67
2023/04/10 00:33:13;;;;;;;;;15.00;12.75;;;;;15.19;40.90;101414.56;5061379;28;45372;-67
2023/04/10 00:35:38;;;;;;;;;16.25;14.75;;;;;15.18;41.12;101415.47;5061257;28;45315;-67
2023/04/10 00:38:04;;;;;;;;;14.25;12.25;;;;;15.16;41.20;101411.13;5061347;28;45363;-68
2023/04/10 00:40:29;;;;;;;;;14.75;13.25;;;;;15.16;41.26;101411.13;5061450;28;45290;-67
2023/04/10 00:42:54;;;;;;;;;14.50;13.75;;;;;15.14;40.85;101415.56;5061322;28;45177;-67
2023/04/10 00:45:20;;;;;;;;;13.50;13.50;;;;;15.13;41.19;101408.53;5061073;28;46820;-67
2023/04/10 00:47:45;;;;;;;;;16.25;14.75;;;;;15.10;40.92;101394.44;5061196;28;45219;-67
2023/04/10 00:50:11;;;;;;;;;13.25;13.00;;;;;15.13;40.91;101392.66;5061314;28;45811;-67
2023/04/10 00:52:36;;;;;;;;;18.75;15.00;;;;;15.11;41.31;101392.69;5061308;28;45593;-67
2023/04/10 00:55:03;;;;;;;;;17.75;15.75;;;;;15.10;41.11;101388.31;5076542;28;47466;-67
2023/04/10 00:57:28;;;;;;;;;14.75;13.50;;;;;15.10;41.23;101383.88;5060928;28;45373;-67
2023/04/10 00:59:54;;;;;;;;;18.50;16.50;;;;;15.10;41.27;101383.00;5059790;28;45211;-67
2023/04/10 01:02:20;;;;;;;;;19.25;18.25;;;;;15.09;41.33;101386.56;5060976;28;45382;-67
2023/04/10 01:04:46;;;;;;;;;18.00;13.50;;;;;15.07;41.18;101380.44;5061019;28;45362;-67
2023/04/10 01:07:37;;;;;;;;;15.75;14.50;;;;;15.08;41.31;101376.88;5060757;28;45307;-67
2023/04/10 01:10:25;;;;;;;;;15.50;14.50;;;;;15.06;40.95;101368.97;5060839;28;45658;-67
2023/04/10 01:13:07;;;;;;;;;15.25;12.00;;;;;15.04;41.42;101373.44;5060808;28;45337;-67
2023/04/10 01:15:46;;;;;;;;;19.50;18.00;;;;;15.02;41.34;101369.94;5060472;28;45224;-67
2023/04/10 01:18:20;;;;;;;;;18.50;17.25;;;;;15.00;41.35;101362.97;5060568;28;45361;-68
2023/04/10 01:20:45;;;;;;;;;20.00;16.50;;;;;14.98;41.56;101365.66;5060512;28;45335;-67
2023/04/10 01:23:48;;;;;;;;;14.00;14.00;;;;;14.96;41.37;101359.50;5059991;28;45407;-67
2023/04/10 01:26:16;;;;;;;;;17.25;13.50;;;;;14.92;41.34;101355.19;5060458;28;45274;-67
2023/04/10 01:28:50;;;;;;;;;13.50;13.50;;;;;14.90;41.42;101352.56;5060211;28;45304;-67
2023/04/10 01:31:28;;;;;;;;;18.50;14.50;;;;;14.90;41.28;101364.94;5060157;28;45489;-67
2023/04/10 01:34:00;;;;;;;;;15.75;15.25;;;;;14.86;41.38;101355.31;5060282;28;45267;-67
2023/04/10 01:36:35;;;;;;;;;18.25;16.75;;;;;14.86;41.24;101356.19;5060134;28;45360;-67
2023/04/10 01:39:02;;;;;;;;;15.75;13.75;;;;;14.85;41.70;101362.38;5060072;28;45417;-67
2023/04/10 01:41:30;;;;;;;;;16.75;13.75;;;;;14.84;41.58;101357.13;5060598;28;45315;-67
2023/04/10 01:43:57;;;;;;;;;15.50;15.50;;;;;14.82;41.56;101364.22;5060309;28;45194;-67
2023/04/10 01:46:25;;;;;;;;;19.50;17.00;;;;;14.79;41.43;101366.03;5059999;28;46207;-67
2023/04/10 01:48:53;;;;;;;;;14.00;11.25;;;;;14.78;41.28;101352.84;5060010;28;45284;-67
2023/04/10 01:51:20;;;;;;;;;16.00;12.50;;;;;14.78;41.50;101351.06;5059163;28;45434;-67
2023/04/10 01:53:47;;;;;;;;;12.75;11.75;;;;;14.77;41.79;101353.75;5058834;28;45393;-68
2023/04/10 01:56:14;;;;;;;;;18.00;17.00;;;;;14.77;41.76;101359.06;5058695;28;46447;-67
2023/04/10 01:58:39;;;;;;;;;16.75;14.25;;;;;14.74;41.66;101354.69;5059874;28;45425;-67
2023/04/10 02:01:05;;;;;;;;;12.00;10.25;;;;;14.74;41.61;101357.34;5058732;28;45269;-68
2023/04/10 02:03:31;;;;;;;;;18.75;16.25;;;;;14.73;41.55;101354.69;5060032;28;45407;-67
2023/04/10 02:06:10;;;;;;;;;17.50;15.50;;;;;14.72;41.84;101350.34;5060012;28;45423;-67
2023/04/10 02:08:51;;;;;;;;;16.75;15.50;;;;;14.70;41.93;101350.34;5060139;28;45172;-67
2023/04/10 02:11:17;;;;;;;;;19.75;17.25;;;;;14.69;41.59;101337.16;5058487;28;45301;-67
2023/04/10 02:13:42;;;;;;;;;20.00;17.00;;;;;14.67;42.01;101345.16;5059994;28;45455;-67
2023/04/10 02:16:09;;;;;;;;;19.75;17.25;;;;;14.69;41.68;101355.69;5059565;28;45346;-67
2023/04/10 02:18:36;;;;;;;;;18.00;16.75;;;;;14.68;41.77;101344.25;5058394;28;45422;-67
2023/04/10 02:21:02;;;;;;;;;19.75;16.00;;;;;14.68;41.66;101344.25;5058625;28;45458;-67
2023/04/10 02:23:28;;;;;;;;;16.75;15.25;;;;;14.67;41.88;101334.56;5059723;28;45261;-67
2023/04/10 02:25:55;;;;;;;;;21.00;16.50;;;;;14.67;41.70;101337.22;5059529;28;46147;-67
2023/04/10 02:28:21;;;;;;;;;17.25;14.00;;;;;14.65;41.76;101333.72;5059815;28;45358;-67
2023/04/10 02:30:46;;;;;;;;;16.50;15.75;;;;;14.64;42.04;101339.91;5059343;28;45505;-67
2023/04/10 02:33:12;;;;;;;;;16.00;16.00;;;;;14.63;42.21;101324.94;5059578;28;45371;-67
2023/04/10 02:35:37;;;;;;;;;13.00;10.50;;;;;14.61;42.18;101324.94;5060348;28;46282;-67
2023/04/10 02:38:02;;;;;;;;;16.00;15.00;;;;;14.59;42.15;101318.84;5063220;28;45347;-67
2023/04/10 02:40:28;;;;;;;;;16.75;14.00;;;;;14.57;42.30;101312.69;5063210;28;45294;-67
2023/04/10 02:42:53;;;;;;;;;14.00;14.00;;;;;14.56;42.08;101313.59;5063125;28;45655;-67
2023/04/10 02:45:18;;;;;;;;;15.50;13.75;;;;;14.54;41.84;101319.81;5062981;28;46093;-67
2023/04/10 02:47:44;;;;;;;;;12.75;12.25;;;;;14.53;42.40;101313.69;5063047;28;45268;-67
2023/04/10 02:50:10;;;;;;;;;18.50;17.00;;;;;14.51;42.39;101315.47;5063214;28;45339;-67
2023/04/10 02:52:35;;;;;;;;;21.00;18.25;;;;;14.50;41.88;101318.16;5063005;28;45169;-68
2023/04/10 02:55:00;;;;;;;;;17.50;15.25;;;;;14.48;42.44;101315.56;5062729;28;45979;-67
2023/04/10 02:57:27;;;;;;;;;16.50;15.50;;;;;14.47;42.23;101303.22;5062965;28;45218;-67
2023/04/10 02:59:52;;;;;;;;;22.00;18.50;;;;;14.44;42.13;101304.16;5062917;28;45453;-67
2023/04/10 03:02:18;;;;;;;;;14.75;14.50;;;;;14.42;42.22;101300.66;5061447;28;45242;-67
2023/04/10 03:04:43;;;;;;;;;17.75;17.00;;;;;14.41;42.45;101303.34;5061571;28;46307;-68
2023/04/10 03:07:08;;;;;;;;;16.25;15.00;;;;;14.41;42.22;101300.72;5062753;28;45227;-67
2023/04/10 03:09:34;;;;;;;;;17.25;16.00;;;;;14.37;42.35;101299.91;5061329;28;45457;-67
2023/04/10 03:12:00;;;;;;;;;16.00;15.50;;;;;14.37;42.22;101297.25;5061480;28;45422;-67
2023/04/10 03:14:26;;;;;;;;;17.25;16.25;;;;;14.35;42.09;101290.25;5062424;28;45418;-67
2023/04/10 03:16:51;;;;;;;;;16.75;14.75;;;;;14.33;42.27;101292.09;5078062;27;45721;-67
2023/04/10 03:19:16;;;;;;;;;15.25;14.00;;;;;14.33;42.43;101292.94;5061323;28;45283;-67
2023/04/10 03:21:42;;;;;;;;;17.75;17.00;;;;;14.30;42.48;101285.94;5062516;28;45295;-67
2023/04/10 03:24:07;;;;;;;;;20.00;16.50;;;;;14.29;42.39;101292.13;5061075;28;47412;-66
2023/04/10 03:26:32;;;;;;;;;16.50;16.00;;;;;14.27;42.66;101288.63;5062417;28;45382;-66
2023/04/10 03:28:58;;;;;;;;;17.00;16.50;;;;;14.25;42.23;101282.53;5061342;28;45302;-67
2023/04/10 03:31:23;;;;;;;;;20.75;15.50;;;;;14.23;42.30;101284.31;5062053;28;45460;-67
2023/04/10 03:33:48;;;;;;;;;17.25;15.00;;;;;14.23;42.55;101278.19;5062238;28;45319;-67
2023/04/10 03:36:14;;;;;;;;;16.75;15.00;;;;;14.20;42.12;101279.13;5062301;28;45295;-67
2023/04/10 03:38:39;;;;;;;;;19.50;15.75;;;;;14.19;42.40;101277.38;5062404;28;45304;-67
2023/04/10 03:41:05;;;;;;;;;16.00;15.50;;;;;14.16;42.47;101285.34;5060861;28;45169;-67
2023/04/10 03:43:30;;;;;;;;;19.75;17.00;;;;;14.15;42.66;101286.28;5062220;28;46236;-67
2023/04/10 03:45:56;;;;;;;;;17.50;16.00;;;;;14.12;42.15;101279.28;5061971;28;45272;-67
2023/04/10 03:48:21;;;;;;;;;16.25;13.75;;;;;14.11;42.35;101271.38;5062147;28;45216;-67
2023/04/10 03:50:46;;;;;;;;;16.75;16.25;;;;;14.09;42.49;101270.53;5062091;28;45234;-67
2023/04/10 03:53:12;;;;;;;;;16.50;15.75;;;;;14.04;42.40;101267.97;5062122;28;45319;-67
2023/04/10 03:55:37;;;;;;;;;18.00;17.25;;;;;14.04;42.76;101275.06;5061887;28;45223;-67
2023/04/10 03:58:03;;;;;;;;;16.75;13.50;;;;;13.99;42.52;101269.84;5062228;28;45506;-68
2023/04/10 04:00:28;;;;;;;;;16.25;15.50;;;;;13.98;42.65;101258.41;5061773;28;45181;-67
2023/04/10 04:02:54;;;;;;;;;19.50;16.75;;;;;13.95;42.67;101255.81;5061896;28;46337;-67
2023/04/10 04:05:19;;;;;;;;;17.00;15.00;;;;;13.93;42.81;101248.84;5061911;28;45177;-67
2023/04/10 04:07:45;;;;;;;;;14.75;13.00;;;;;13.92;42.42;101255.00;5062016;28;45346;-68
2023/04/10 04:10:10;;;;;;;;;13.00;12.00;;;;;13.88;42.55;101259.47;5061829;28;45456;-67
2023/04/10 04:12:35;;;;;;;;;13.75;12.50;;;;;13.86;42.51;101250.75;5061714;28;45308;-67
2023/04/10 04:15:01;;;;;;;;;15.75;14.50;;;;;13.83;42.74;101253.41;5061532;28;45330;-68
2023/04/10 04:17:26;;;;;;;;;12.75;11.75;;;;;13.80;42.83;101256.13;5061828;28;45317;-67
2023/04/10 04:19:52;;;;;;;;;18.00;16.00;;;;;13.75;42.39;101245.66;5061490;28;45336;-67
2023/04/10 04:22:17;;;;;;;;;16.25;14.25;;;;;13.73;42.77;101246.59;5061694;28;45315;-67
2023/04/10 04:24:42;;;;;;;;;14.50;13.50;;;;;13.73;42.75;101255.38;5061490;28;45256;-67
2023/04/10 04:27:08;;;;;;;;;11.50;11.50;;;;;13.67;42.96;101251.97;5061712;28;47834;-67
2023/04/10 04:29:33;;;;;;;;;12.75;12.25;;;;;13.70;42.79;101263.38;5061307;28;45547;-67
2023/04/10 04:31:58;;;;;;;;;14.25;14.25;;;;;13.67;42.63;101257.25;5060039;28;46169;-67
2023/04/10 04:34:24;;;;;;;;;16.00;15.00;;;;;13.64;42.72;101269.63;5061472;28;45358;-68
2023/04/10 04:36:49;;;;;;;;;17.00;15.75;;;;;13.62;42.97;101265.25;5061621;28;45272;-67
2023/04/10 04:39:15;;;;;;;;;18.25;16.50;;;;;13.62;42.94;101276.72;5061346;28;45299;-68
2023/04/10 04:41:40;;;;;;;;;14.50;14.00;;;;;13.61;42.86;101269.69;5061228;28;46024;-68
2023/04/10 04:44:05;;;;;;;;;17.50;15.75;;;;;13.61;42.75;101268.78;5061295;28;45235;-68
2023/04/10 04:46:31;;;;;;;;;15.75;15.75;;;;;13.59;43.06;101266.19;5061233;28;45235;-68
2023/04/10 04:48:56;;;;;;;;;18.00;15.75;;;;;13.58;43.02;101266.22;5061176;28;45577;-67
2023/04/10 04:51:22;;;;;;;;;13.00;13.00;;;;;13.58;43.07;101267.09;5061188;28;45930;-68
2023/04/10 04:53:47;;;;;;;;;16.00;14.25;;;;;13.57;43.22;101270.66;5061092;28;45371;-67
2023/04/10 04:56:12;;;;;;;;;15.50;13.00;;;;;13.56;42.83;101270.66;5059921;28;45258;-67
2023/04/10 04:58:38;;;;;;;;;13.25;13.25;;;;;13.54;43.19;101275.97;5060242;28;45235;-67
2023/04/10 05:01:03;;;;;;;;;16.00;16.00;;;;;13.53;43.28;101276.00;5059523;28;47871;-67
2023/04/10 05:03:29;;;;;;;;;15.00;14.00;;;;;13.50;43.07;101271.66;5060957;28;45224;-68
2023/04/10 05:05:54;;;;;;;;;17.00;16.00;;;;;13.47;43.30;101269.94;5061222;28;45569;-67
2023/04/10 05:08:20;;;;;;;;;14.25;13.00;;;;;13.45;43.26;101269.09;5060863;28;45341;-67
2023/04/10 05:10:45;;;;;;;;;13.75;12.25;;;;;13.43;43.36;101280.56;5060643;28;46026;-68
2023/04/10 05:13:11;;;;;;;;;16.75;15.50;;;;;13.39;43.44;101279.75;5060830;28;45259;-69
2023/04/10 05:15:36;;;;;;;;;13.75;13.25;;;;;13.40;43.34;101280.63;5059448;28;45428;-68
2023/04/10 05:18:02;;;;;;;;;13.75;12.25;;;;;13.37;43.00;101275.38;5060849;28;45386;-68
2023/04/10 05:20:27;;;;;;;;;14.50;13.00;;;;;13.33;43.20;101271.91;5060490;28;46321;-68
2023/04/10 05:22:52;;;;;;;;;16.50;16.00;;;;;13.35;43.30;101279.81;5060606;28;45336;-68
2023/04/10 05:25:18;;;;;;;;;12.25;12.00;;;;;13.31;43.42;101273.72;5059111;28;52437;-67
2023/04/10 05:27:43;;;;;;;;;13.50;12.75;;;;;13.29;43.51;101278.13;5060567;28;45386;-67
2023/04/10 05:30:09;;;;;;;;;15.25;14.25;;;;;13.28;43.49;101282.56;5060213;28;46174;-67
2023/04/10 05:32:34;;;;;;;;;13.00;12.00;;;;;13.27;43.44;101274.63;5060293;28;45257;-68
2023/04/10 05:35:00;;;;;;;;;13.25;11.75;;;;;13.25;43.45;101284.38;5060879;28;45221;-67
2023/04/10 05:37:25;;;;;;;;;13.75;12.00;;;;;13.24;43.43;101286.13;5059090;28;45282;-67
2023/04/10 05:39:50;;;;;;;;;9.50;9.00;;;;;13.20;43.29;101289.72;5060458;28;45199;-67
2023/04/10 05:42:16;;;;;;;;;17.50;13.00;;;;;13.22;43.62;101290.56;5060337;28;45261;-67
2023/04/10 05:44:44;;;;;;;;;16.25;14.00;;;;;13.21;43.38;101295.88;5060553;28;45291;-67
2023/04/10 05:47:09;;;;;;;;;10.00;9.50;;;;;13.19;43.55;101303.81;5060201;28;45516;-68
2023/04/10 05:49:34;;;;;;;;;13.25;13.25;;;;;13.18;43.52;101296.78;5060336;28;45187;-67
2023/04/10 05:52:00;;;;;;;;;13.00;11.75;;;;;13.19;43.25;101295.03;5060319;28;45401;-67
2023/04/10 05:54:25;;;;;;;;;10.75;10.75;;;;;13.17;43.42;101293.28;5059373;28;45620;-67
2023/04/10 05:56:50;;;;;;;;;7.50;6.50;;;;;13.17;43.25;101292.41;5060142;28;45615;-67
2023/04/10 05:59:16;;;;;;;;;12.25;12.25;;;;;13.17;43.69;101290.63;5060100;28;46109;-67
2023/04/10 06:01:41;;;;;;;;;18.50;14.25;;;;;13.14;43.52;101287.19;5059872;28;45412;-68
2023/04/10 06:04:06;;;;;;;;;14.75;13.75;;;;;13.15;43.95;101299.47;5059035;28;45248;-68
2023/04/10 06:06:32;;;;;;;;;14.00;11.75;;;;;13.14;43.65;101284.53;5060092;28;45524;-68
2023/04/10 06:08:58;;;;;;;;;14.25;14.25;;;;;13.14;43.66;101290.72;5059951;28;46402;-68
2023/04/10 06:11:23;;;;;;;;;15.25;12.25;;;;;13.14;43.77;101287.19;5059918;28;45331;-68
2023/04/10 06:13:48;;;;;;;;;15.50;11.75;;;;;13.13;43.65;101290.69;5060350;28;45510;-68
2023/04/10 06:16:15;;;;;;;;;14.25;12.00;;;;;13.14;43.76;101295.97;5058237;28;46627;-68
2023/04/10 06:18:40;;;;;;;;;15.00;13.75;;;;;13.15;43.61;101299.47;5059657;28;46087;-69
2023/04/10 06:21:06;;;;;;;;;14.00;13.50;;;;;13.14;43.67;101295.09;5059672;28;45240;-68
2023/04/10 06:23:31;;;;;;;;;15.50;14.75;;;;;13.14;44.07;101293.34;5060280;28;45216;-68
2023/04/10 06:25:57;;;;;;;;;15.00;14.00;;;;;13.18;43.86;101294.13;5059607;28;45245;-67
2023/04/10 06:28:22;;;;;;;;;16.00;12.50;;;;;13.17;44.03;101295.06;5059903;28;46194;-68
2023/04/10 06:30:48;;;;;;;;;13.75;13.00;;;;;13.20;43.89;101287.06;5074952;28;45266;-68
2023/04/10 06:33:13;;;;;;;;;15.00;13.00;;;;;13.22;44.19;101298.50;5059826;28;45412;-69
2023/04/10 06:35:38;;;;;;;;;10.00;10.00;;;;;13.24;44.07;101295.81;5058365;28;45654;-69
2023/04/10 06:38:04;;;;;;;;;13.00;12.00;;;;;13.24;43.98;101290.53;5059706;28;46081;-68
2023/04/10 06:40:29;;;;;;;;;15.75;14.25;;;;;13.23;44.14;101294.97;5059483;28;45340;-68
2023/04/10 06:42:55;;;;;;;;;15.00;13.00;;;;;13.29;44.19;101300.09;5059709;28;45288;-68
2023/04/10 06:45:21;;;;;;;;;13.00;12.00;;;;;13.32;44.24;101299.22;5059429;28;45315;-68
2023/04/10 06:47:46;;;;;;;;;14.00;13.00;;;;;13.33;44.35;101296.53;5059499;28;45475;-68
2023/04/10 06:50:11;;;;;;;;;12.75;12.75;;;;;13.33;44.02;101299.19;5059622;28;45153;-69
2023/04/10 06:52:37;;;;;;;;;13.75;13.00;;;;;13.37;44.35;101299.13;5059868;28;45359;-69
2023/04/10 06:55:03;;;;;;;;;12.75;11.75;;;;;13.38;44.23;101295.63;5059589;28;45243;-68
2023/04/10 06:57:28;;;;;;;;;12.50;12.00;;;;;13.42;44.24;101297.31;5059199;28;45345;-68
2023/04/10 06:59:53;;;;;;;;;11.50;10.75;;;;;13.43;44.14;101288.50;5059130;28;45317;-67
2023/04/10 07:02:19;;;;;;;;;13.75;13.25;;;;;13.45;44.07;101284.94;5059569;28;45496;-68
2023/04/10 07:04:44;;;;;;;;;15.00;14.00;;;;;13.46;44.07;101273.47;5059312;28;45261;-69
2023/04/10 07:07:12;;;;;;;;;12.00;11.00;;;;;13.47;44.12;101269.94;5059384;28;46206;-68
2023/04/10 07:09:38;;;;;;;;;15.00;11.75;;;;;13.52;44.09;101275.16;5059234;28;45295;-70
2023/04/10 07:12:03;;;;;;;;;16.25;15.50;;;;;13.55;44.10;101274.22;5059352;28;45238;-69
2023/04/10 07:14:29;;;;;;;;;12.75;11.50;;;;;13.59;44.20;101265.34;5058942;28;45321;-69
2023/04/10 07:16:54;;;;;;;;;8.25;8.25;;;;;13.61;44.39;101261.75;5059021;28;46288;-69
2023/04/10 07:19:19;;;;;;;;;12.75;11.25;;;;;13.65;44.28;101266.09;5059058;28;45173;-69
2023/04/10 07:21:48;;;;;;;;;17.75;15.00;;;;;13.68;44.52;101264.28;5060225;28;45339;-69
2023/04/10 07:24:15;;;;;;;;;13.00;11.00;;;;;13.70;44.40;101262.47;5062425;28;45390;-74
2023/04/10 07:26:40;;;;;;;;;13.25;11.75;;;;;13.74;44.17;101259.75;5062447;28;45248;-69
2023/04/10 07:29:05;;;;;;;;;12.00;9.00;;;;;13.76;44.20;101263.25;5062144;28;45208;-75
2023/04/10 07:31:31;;;;;;;;;11.75;11.75;;;;;13.79;44.28;101259.69;5062620;28;45422;-70
2023/04/10 07:34:02;;;;;;;;;11.25;10.00;;;;;13.85;43.99;101256.03;5062344;28;45395;-69
2023/04/10 07:36:27;;;;;;;;;13.00;11.75;;;;;13.89;44.36;101252.44;5060872;28;45343;-70
2023/04/10 07:38:53;;;;;;;;;12.50;12.50;;;;;13.93;44.64;101247.06;5062081;28;45450;-69
2023/04/10 07:41:19;;;;;;;;;17.00;15.00;;;;;13.97;44.33;101240.81;5062369;28;45264;-68
2023/04/10 07:43:45;;;;;;;;;12.75;12.50;;;;;14.02;44.36;101237.22;5062196;28;45338;-69
2023/04/10 07:46:10;;;;;;;;;11.25;11.25;;;;;14.05;44.38;101231.84;5061974;28;45281;-68
2023/04/10 07:48:36;;;;;;;;;15.00;12.75;;;;;14.10;44.16;101237.91;5062236;28;45331;-68
2023/04/10 07:51:01;;;;;;;;;15.00;12.00;;;;;14.13;44.31;101236.06;5062247;28;45359;-68
2023/04/10 07:53:26;;;;;;;;;11.00;11.00;;;;;14.19;44.25;101239.47;5062304;28;45254;-69
2023/04/10 07:55:52;;;;;;;;;11.25;11.25;;;;;14.23;44.70;101243.81;5061855;28;46223;-69
2023/04/10 07:58:18;;;;;;;;;10.75;10.75;;;;;14.26;44.38;101247.28;5062072;28;45240;-69
2023/04/10 08:00:43;;;;;;;;;9.50;8.25;;;;;14.33;44.70;101250.66;5061964;28;45433;-69
2023/04/10 08:03:08;;;;;;;;;13.00;12.00;;;;;14.37;44.38;101239.09;5061975;28;45298;-69
2023/04/10 08:05:34;;;;;;;;;9.00;7.75;;;;;14.44;44.74;101245.13;5061896;28;46000;-67
2023/04/10 08:07:59;;;;;;;;;11.50;11.50;;;;;14.47;44.47;101245.91;5061944;28;45237;-68
2023/04/10 08:10:25;;;;;;;;;13.00;11.00;;;;;14.52;44.28;101235.25;5061886;28;45216;-68
2023/04/10 08:12:50;;;;;;;;;14.25;11.50;;;;;14.55;44.67;101232.53;5061998;28;45325;-67
2023/04/10 08:15:16;;;;;;;;;13.50;12.25;;;;;14.62;44.62;101233.25;5061650;28;46497;-68
2023/04/10 08:17:42;;;;;;;;;15.75;15.75;;;;;14.67;44.72;101219.97;5061783;28;45385;-67
2023/04/10 08:20:09;;;;;;;;;11.75;10.00;;;;;14.72;44.76;101233.94;5061511;28;45872;-68
2023/04/10 08:22:34;;;;;;;;;9.50;7.25;;;;;14.76;44.50;101244.41;5061681;28;45260;-68
2023/04/10 08:24:59;;;;;;;;;12.75;12.00;;;;;14.84;44.48;101244.25;5061128;28;54136;-69
2023/04/10 08:27:25;;;;;;;;;9.50;9.00;;;;;14.88;44.80;101245.91;5061767;28;45184;-69
2023/04/10 08:29:50;;;;;;;;;10.75;10.75;;;;;14.93;44.84;101238.72;5061343;28;45545;-69
2023/04/10 08:32:15;;;;;;;;;8.25;8.25;;;;;14.95;44.71;101238.66;5061218;28;47228;-69
2023/04/10 08:34:41;;;;;;;;;8.75;8.75;;;;;15.05;44.22;101236.69;5058885;28;46663;-69
2023/04/10 08:37:08;;;;;;;;;12.00;12.00;;;;;15.08;44.69;101236.59;5060007;28;45205;-68
2023/04/10 08:39:37;;;;;;;;;12.00;9.25;;;;;15.15;44.74;101245.25;5061274;28;45430;-69
2023/04/10 08:42:05;;;;;;;;;10.50;9.50;;;;;15.18;44.35;101235.47;5061217;28;45518;-68
2023/04/10 08:44:30;;;;;;;;;10.75;9.25;;;;;15.23;44.74;101235.31;5060839;28;46504;-68
2023/04/10 08:46:58;;;;;;;;;11.50;9.75;;;;;15.27;44.89;101234.38;5059773;28;45523;-68
2023/04/10 08:49:38;;;;;;;;;11.00;10.50;;;;;15.31;44.63;101238.66;5076228;27;45262;-68
2023/04/10 08:52:06;;;;;;;;;12.25;11.25;;;;;15.34;44.28;101230.63;5060946;28;45401;-68
2023/04/10 08:54:34;;;;;;;;;11.25;11.00;;;;;15.39;44.76;101234.00;5060920;28;46233;-68
2023/04/10 08:57:00;;;;;;;;;8.50;8.50;;;;;15.38;44.69;101226.13;5060959;28;45439;-69
2023/04/10 08:59:30;;;;;;;;;13.50;8.00;;;;;15.43;44.51;101238.34;5060950;28;45346;-69
2023/04/10 09:01:56;;;;;;;;;13.00;10.50;;;;;15.48;44.62;101235.53;5061068;28;45235;-69
2023/04/10 09:04:23;;;;;;;;;8.25;8.25;;;;;15.52;44.47;101228.41;5060940;28;46813;-69
2023/04/10 09:06:49;;;;;;;;;13.50;13.25;;;;;15.53;44.36;101225.69;5060762;28;45236;-68
2023/04/10 09:09:14;;;;;;;;;9.50;8.50;;;;;15.58;44.25;101220.28;5059364;28;45580;-68
2023/04/10 09:11:51;;;;;;;;;10.50;7.00;;;;;15.63;44.41;101223.66;5060733;28;48602;-68
2023/04/10 09:14:24;;;;;;;;;12.50;9.50;;;;;15.66;44.61;101233.31;5060557;28;45415;-69
2023/04/10 09:16:51;;;;;;;;;9.25;9.25;;;;;15.67;44.51;101233.28;5060817;28;45604;-69
2023/04/10 09:19:30;;;;;;;;;12.75;11.75;;;;;15.71;44.51;101232.28;5059147;28;45342;-67
2023/04/10 09:21:56;;;;;;;;;10.25;9.75;;;;;15.75;44.60;101222.47;5060737;28;45178;-69
2023/04/10 09:24:25;;;;;;;;;11.00;11.00;;;;;15.81;44.35;101230.25;5060290;28;45449;-69
2023/04/10 09:26:50;;;;;;;;;7.25;7.25;;;;;15.85;44.57;101231.06;5060738;28;45315;-68
2023/04/10 09:29:16;;;;;;;;;8.50;6.25;;;;;15.86;44.82;101225.72;5060441;28;45481;-70
2023/04/10 09:31:45;;;;;;;;;13.50;10.25;;;;;15.89;44.32;101217.66;5060579;28;45298;-70
2023/04/10 09:34:16;;;;;;;;;12.00;11.50;;;;;15.95;44.33;101211.34;5060261;28;45441;-70
2023/04/10 09:36:43;;;;;;;;;12.25;11.00;;;;;15.98;44.63;101202.44;5042493;28;45364;-69
2023/04/10 09:39:11;;;;;;;;;11.25;10.00;;;;;16.00;44.46;101198.81;5060281;28;45345;-69
2023/04/10 09:41:48;;;;;;;;;8.25;8.25;;;;;16.03;44.43;101201.38;5060366;28;46207;-69
2023/04/10 09:44:18;;;;;;;;;11.25;11.00;;;;;16.05;44.65;101193.34;5059707;28;46279;-69
2023/04/10 09:46:45;;;;;;;;;12.50;11.00;;;;;16.06;45.04;101196.00;5060365;28;45327;-68
2023/04/10 09:49:10;;;;;;;;;11.25;10.00;;;;;16.07;44.90;101189.78;5060238;28;45252;-67
2023/04/10 09:51:36;;;;;;;;;9.25;9.25;;;;;16.10;44.60;101180.88;5060326;28;45458;-68
2023/04/10 09:54:02;;;;;;;;;11.50;8.50;;;;;16.12;44.61;101186.97;5060058;28;46071;-68
2023/04/10 09:56:28;;;;;;;;;7.25;6.50;;;;;16.14;44.49;101190.44;5060119;28;45338;-68
2023/04/10 09:58:57;;;;;;;;;12.25;12.25;;;;;16.13;44.85;101196.66;5059900;28;45460;-68
2023/04/10 10:01:26;;;;;;;;;14.50;14.50;;;;;16.19;44.83;101200.94;5060144;28;45398;-68
2023/04/10 10:03:53;;;;;;;;;10.25;8.25;;;;;16.19;44.78;101196.47;5059999;28;45394;-68
2023/04/10 10:06:19;;;;;;;;;13.50;12.00;;;;;16.20;44.85;101171.69;5075560;28;45286;-68
2023/04/10 10:08:46;;;;;;;;;10.00;10.00;;;;;16.23;44.91;101173.41;5060167;28;45368;-69
2023/04/10 10:11:14;;;;;;;;;14.25;11.50;;;;;16.24;44.71;101173.34;5058470;28;45300;-69
2023/04/10 10:13:48;;;;;;;;;11.25;9.75;;;;;16.27;44.60;101168.88;5059797;28;45959;-69
2023/04/10 10:16:13;;;;;;;;;9.00;9.00;;;;;16.29;44.66;101165.25;5059514;28;45272;-69
2023/04/10 10:18:54;;;;;;;;;11.00;9.75;;;;;16.31;44.49;101167.84;5059753;28;45323;-69
2023/04/10 10:21:19;;;;;;;;;13.75;11.00;;;;;16.34;44.88;101167.72;5059847;28;45512;-69
2023/04/10 10:23:47;;;;;;;;;13.00;10.00;;;;;16.36;44.84;101171.22;5059839;28;45626;-69
2023/04/10 10:26:14;;;;;;;;;12.50;8.50;;;;;16.39;44.68;101160.53;5059625;28;45322;-69
2023/04/10 10:28:39;;;;;;;;;12.25;10.50;;;;;16.40;44.66;101164.88;5059851;28;45331;-69
2023/04/10 10:31:05;;;;;;;;;10.50;10.50;;;;;16.42;44.37;101163.91;5059415;28;45248;-69
2023/04/10 10:33:34;;;;;;;;;11.50;11.50;;;;;16.45;44.62;101151.50;5059616;28;47352;-69
2023/04/10 10:36:00;;;;;;;;;9.75;9.50;;;;;16.45;44.86;101147.03;5059403;28;45268;-69
2023/04/10 10:38:27;;;;;;;;;10.50;8.75;;;;;16.46;44.73;101138.16;5059750;28;45346;-69
2023/04/10 10:41:15;;;;;;;;;10.50;10.50;;;;;16.50;44.74;101160.16;5074934;28;45589;-69
2023/04/10 10:43:53;;;;;;;;;10.50;8.50;;;;;16.51;44.59;101157.47;5059369;28;46378;-69
2023/04/10 10:46:37;;;;;;;;;9.25;8.00;;;;;16.52;44.58;101148.59;5059543;28;45243;-70
2023/04/10 10:49:03;;;;;;;;;10.00;10.00;;;;;16.55;44.71;101148.50;5059541;28;45438;-69
2023/04/10 10:51:51;;;;;;;;;5.50;5.50;;;;;16.55;44.75;101139.66;5059690;28;45182;-69
2023/04/10 10:54:26;;;;;;;;;6.75;6.00;;;;;16.53;44.70;101129.09;5059357;28;46666;-69
2023/04/10 10:56:51;;;;;;;;;10.25;6.25;;;;;16.54;44.44;101129.97;5060581;28;45283;-67
2023/04/10 10:59:16;;;;;;;;;8.75;7.50;;;;;16.56;44.20;101138.75;5063007;28;45226;-69
2023/04/10 11:02:19;;;;;;;;;9.00;7.50;;;;;16.54;44.55;101117.59;5061606;28;45453;-69
2023/04/10 11:04:49;;;;;;;;;14.50;11.00;;;;;16.57;44.36;101113.97;5062936;28;45204;-70
2023/04/10 11:07:15;;;;;;;;;7.75;7.75;;;;;16.60;44.32;101127.09;5062659;28;45350;-70
2023/04/10 11:09:44;;;;;;;;;7.75;7.00;;;;;16.61;44.19;101120.03;5062860;28;45227;-69
2023/04/10 11:12:10;;;;;;;;;6.50;6.50;;;;;16.59;44.40;101128.06;5062927;28;45349;-69